createdAt,value
2023-04-08T00:00:18.081Z,28.27
2023-04-08T00:01:18.066Z,27.08
2023-04-08T00:02:18.193Z,27.30
2023-04-08T00:03:18.218Z,28.34
2023-04-08T00:04:18.238Z,28.05
2023-04-08T00:05:18.179Z,28.01
2023-04-08T00:06:18.211Z,26.49
2023-04-08T00:07:18.213Z,28.60
2023-04-08T00:08:18.590Z,26.73
2023-04-08T00:09:18.264Z,27.51
2023-04-08T00:10:18.282Z,27.91
2023-04-08T00:11:18.299Z,28.12
2023-04-08T00:12:18.326Z,29.21
2023-04-08T00:13:18.362Z,27.48
2023-04-08T00:14:18.333Z,27.41
2023-04-08T00:15:18.368Z,27.63
2023-04-08T00:16:18.400Z,28.11
2023-04-08T00:17:18.379Z,27.16
2023-04-08T00:18:18.428Z,27.91
2023-04-08T00:19:18.466Z,27.45
2023-04-08T00:20:18.467Z,26.39
2023-04-08T00:21:18.479Z,27.68
2023-04-08T00:22:18.527Z,29.07
2023-04-08T00:23:18.535Z,27.52
2023-04-08T00:24:18.499Z,27.39
2023-04-08T00:25:18.525Z,28.13
2023-04-08T00:26:18.580Z,27.79
2023-04-08T00:27:18.643Z,26.55
2023-04-08T00:28:18.730Z,28.40
2023-04-08T00:29:18.764Z,28.27
2023-04-08T00:30:18.888Z,28.09
2023-04-08T00:31:18.971Z,25.92
2023-04-08T00:32:19.025Z,28.18
2023-04-08T00:33:19.065Z,27.80
2023-04-08T00:34:19.165Z,27.57
2023-04-08T00:35:19.242Z,27.22
2023-04-08T00:36:19.273Z,28.39
2023-04-08T00:37:19.361Z,27.54
2023-04-08T00:38:19.441Z,26.35
2023-04-08T00:39:19.496Z,28.01
2023-04-08T00:40:19.593Z,27.60
2023-04-08T00:41:19.658Z,27.94
2023-04-08T00:42:19.758Z,27.88
2023-04-08T00:43:19.824Z,27.42
2023-04-08T00:44:19.897Z,27.75
2023-04-08T00:45:20.011Z,26.88
2023-04-08T00:46:20.106Z,26.51
2023-04-08T00:47:20.158Z,27.61
2023-04-08T00:48:20.260Z,27.15
2023-04-08T00:49:20.291Z,27.47
2023-04-08T00:50:20.483Z,28.00
2023-04-08T00:51:20.496Z,27.72
2023-04-08T00:52:20.580Z,26.18
2023-04-08T00:53:20.685Z,28.19
2023-04-08T00:54:20.745Z,27.53
2023-04-08T00:55:20.820Z,27.74
2023-04-08T00:56:20.927Z,28.11
2023-04-08T00:57:20.946Z,27.47
2023-04-08T00:58:21.042Z,28.29
2023-04-08T00:59:21.166Z,27.74
2023-04-08T01:00:21.236Z,27.25
2023-04-08T01:01:21.377Z,27.82
2023-04-08T01:02:21.620Z,26.54
2023-04-08T01:04:21.902Z,26.83
2023-04-08T01:05:21.664Z,28.48
2023-04-08T01:06:21.770Z,26.87
2023-04-08T01:07:21.837Z,27.21
2023-04-08T01:08:21.963Z,28.26
2023-04-08T01:09:21.995Z,28.49
2023-04-08T01:10:22.108Z,27.69
2023-04-08T01:11:22.186Z,27.27
2023-04-08T01:12:22.286Z,27.77
2023-04-08T01:13:22.381Z,27.74
2023-04-08T01:14:22.451Z,27.40
2023-04-08T01:15:22.504Z,28.94
2023-04-08T01:16:22.777Z,27.99
2023-04-08T01:17:22.689Z,28.43
2023-04-08T01:18:22.755Z,27.26
2023-04-08T01:19:22.858Z,27.57
2023-04-08T01:20:22.982Z,28.86
2023-04-08T01:21:22.996Z,28.15
2023-04-08T01:22:23.105Z,28.44
2023-04-08T01:23:23.207Z,27.77
2023-04-08T01:24:23.263Z,26.93
2023-04-08T01:25:23.359Z,28.62
2023-04-08T01:26:23.436Z,28.20
2023-04-08T01:27:23.534Z,27.99
2023-04-08T01:28:23.607Z,28.13
2023-04-08T01:29:23.679Z,29.44
2023-04-08T01:30:23.796Z,28.13
2023-04-08T01:31:23.926Z,27.90
2023-04-08T01:32:23.891Z,27.83
2023-04-08T01:33:23.871Z,28.09
2023-04-08T01:34:23.936Z,27.15
2023-04-08T01:35:24.022Z,28.92
2023-04-08T01:36:23.979Z,27.04
2023-04-08T01:37:23.986Z,26.89
2023-04-08T01:38:24.058Z,28.55
2023-04-08T01:39:24.094Z,28.38
2023-04-08T01:40:24.202Z,26.59
2023-04-08T01:41:24.192Z,27.64
2023-04-08T01:42:24.196Z,28.19
2023-04-08T01:43:24.250Z,26.71
2023-04-08T01:44:24.286Z,27.67
2023-04-08T01:45:24.322Z,28.63
2023-04-08T01:46:24.346Z,27.84
2023-04-08T01:47:24.338Z,28.77
2023-04-08T01:48:24.380Z,28.91
2023-04-08T01:49:24.393Z,28.35
2023-04-08T01:50:24.430Z,30.07
2023-04-08T01:51:24.481Z,28.33
2023-04-08T01:52:24.517Z,27.23
2023-04-08T01:53:24.535Z,26.94
2023-04-08T01:54:24.563Z,28.02
2023-04-08T01:55:24.618Z,27.22
2023-04-08T01:56:24.723Z,28.12
2023-04-08T01:57:24.716Z,28.52
2023-04-08T01:58:24.751Z,27.90
2023-04-08T01:59:24.796Z,28.21
2023-04-08T02:00:24.824Z,28.29
2023-04-08T02:01:24.884Z,27.34
2023-04-08T02:02:25.092Z,29.93
2023-04-08T02:03:25.169Z,30.37
2023-04-08T02:04:25.089Z,27.58
2023-04-08T02:05:25.026Z,27.99
2023-04-08T02:06:25.076Z,26.92
2023-04-08T02:07:25.094Z,28.83
2023-04-08T02:08:25.129Z,28.94
2023-04-08T02:09:25.158Z,29.72
2023-04-08T02:10:25.151Z,28.25
2023-04-08T02:11:25.175Z,29.89
2023-04-08T02:12:25.190Z,27.89
2023-04-08T02:13:25.238Z,28.10
2023-04-08T02:14:25.277Z,30.04
2023-04-08T02:15:25.272Z,29.24
2023-04-08T02:16:25.511Z,28.84
2023-04-08T02:17:25.342Z,30.28
2023-04-08T02:18:25.406Z,29.20
2023-04-08T02:19:25.391Z,28.64
2023-04-08T02:20:25.445Z,27.95
2023-04-08T02:21:25.465Z,29.99
2023-04-08T02:22:25.518Z,28.77
2023-04-08T02:23:25.526Z,29.07
2023-04-08T02:24:25.533Z,28.71
2023-04-08T02:25:25.533Z,28.49
2023-04-08T02:26:25.553Z,27.95
2023-04-08T02:27:25.625Z,27.36
2023-04-08T02:28:25.644Z,28.47
2023-04-08T02:29:25.660Z,27.32
2023-04-08T02:30:25.700Z,28.39
2023-04-08T02:31:25.771Z,27.13
2023-04-08T02:32:25.782Z,27.63
2023-04-08T02:33:25.832Z,28.00
2023-04-08T02:34:25.909Z,28.68
2023-04-08T02:35:25.931Z,28.26
2023-04-08T02:36:25.975Z,28.79
2023-04-08T02:37:25.986Z,30.04
2023-04-08T02:38:26.031Z,28.31
2023-04-08T02:39:26.078Z,28.55
2023-04-08T02:40:26.091Z,27.39
2023-04-08T02:41:26.103Z,27.74
2023-04-08T02:42:26.183Z,29.23
2023-04-08T02:43:26.201Z,29.32
2023-04-08T02:44:26.188Z,28.64
2023-04-08T02:45:26.236Z,29.99
2023-04-08T02:46:26.253Z,29.83
2023-04-08T02:47:26.303Z,29.68
2023-04-08T02:48:26.356Z,28.66
2023-04-08T02:49:26.327Z,27.76
2023-04-08T02:50:26.373Z,28.28
2023-04-08T02:51:26.480Z,28.47
2023-04-08T02:52:26.541Z,28.97
2023-04-08T02:53:26.595Z,28.33
2023-04-08T02:54:26.639Z,29.32
2023-04-08T02:55:26.741Z,29.61
2023-04-08T02:56:26.814Z,29.21
2023-04-08T02:57:26.913Z,29.44
2023-04-08T02:58:27.049Z,30.41
2023-04-08T02:59:27.106Z,30.22
2023-04-08T03:00:27.208Z,29.53
2023-04-08T03:01:27.396Z,30.43
2023-04-08T03:02:27.528Z,28.69
2023-04-08T03:03:27.586Z,29.57
2023-04-08T03:04:27.500Z,29.67
2023-04-08T03:05:27.603Z,28.27
2023-04-08T03:06:27.651Z,30.56
2023-04-08T03:07:27.724Z,28.70
2023-04-08T03:08:27.782Z,30.34
2023-04-08T03:09:27.856Z,29.90
2023-04-08T03:10:27.981Z,30.21
2023-04-08T03:11:28.084Z,29.93
2023-04-08T03:12:28.128Z,28.62
2023-04-08T03:13:28.200Z,29.79
2023-04-08T03:14:28.273Z,29.73
2023-04-08T03:15:28.387Z,30.02
2023-04-08T03:16:28.489Z,29.14
2023-04-08T03:17:28.503Z,29.86
2023-04-08T03:18:28.598Z,30.09
2023-04-08T03:19:28.640Z,29.81
2023-04-08T03:20:28.678Z,29.82
2023-04-08T03:21:28.734Z,29.83
2023-04-08T03:22:28.840Z,30.14
2023-04-08T03:23:28.914Z,30.03
2023-04-08T03:24:28.953Z,29.78
2023-04-08T03:25:29.073Z,31.69
2023-04-08T03:26:29.119Z,28.46
2023-04-08T03:27:29.197Z,29.88
2023-04-08T03:28:29.232Z,29.78
2023-04-08T03:29:29.323Z,29.51
2023-04-08T03:30:29.402Z,31.06
2023-04-08T03:31:29.500Z,31.09
2023-04-08T03:32:29.591Z,29.95
2023-04-08T03:33:29.589Z,29.90
2023-04-08T03:34:29.651Z,30.10
2023-04-08T03:35:29.803Z,30.47
2023-04-08T03:36:29.820Z,31.53
2023-04-08T03:37:29.896Z,29.58
2023-04-08T03:38:29.935Z,30.29
2023-04-08T03:39:30.148Z,30.58
2023-04-08T03:40:30.073Z,30.10
2023-04-08T03:41:30.098Z,29.54
2023-04-08T03:42:30.159Z,28.53
2023-04-08T03:43:30.196Z,29.95
2023-04-08T03:44:30.262Z,30.93
2023-04-08T03:45:30.308Z,29.01
2023-04-08T03:46:30.480Z,29.92
2023-04-08T03:47:30.409Z,29.42
2023-04-08T03:48:30.405Z,30.31
2023-04-08T03:49:30.466Z,30.32
2023-04-08T03:50:30.513Z,31.59
2023-04-08T03:51:30.567Z,30.03
2023-04-08T03:52:30.598Z,29.60
2023-04-08T03:53:30.650Z,30.91
2023-04-08T03:54:30.763Z,31.64
2023-04-08T03:55:30.784Z,30.60
2023-04-08T03:56:30.801Z,29.07
2023-04-08T03:57:30.919Z,31.72
2023-04-08T03:58:30.899Z,31.15
2023-04-08T03:59:30.931Z,28.97
2023-04-08T04:00:30.975Z,29.36
2023-04-08T04:01:31.087Z,30.17
2023-04-08T04:02:31.254Z,29.46
2023-04-08T04:03:31.280Z,30.03
2023-04-08T04:04:31.290Z,29.87
2023-04-08T04:05:31.337Z,28.84
2023-04-08T04:06:31.384Z,30.14
2023-04-08T04:07:31.470Z,30.74
2023-04-08T04:08:31.596Z,29.53
2023-04-08T04:09:31.645Z,30.30
2023-04-08T04:10:31.679Z,29.90
2023-04-08T04:11:31.741Z,28.53
2023-04-08T04:12:31.820Z,30.06
2023-04-08T04:13:31.895Z,31.01
2023-04-08T04:14:31.970Z,29.08
2023-04-08T04:15:32.076Z,29.65
2023-04-08T04:16:32.952Z,28.87
2023-04-08T04:17:32.194Z,30.36
2023-04-08T04:18:32.332Z,31.08
2023-04-08T04:19:32.397Z,31.89
2023-04-08T04:20:32.457Z,29.72
2023-04-08T04:21:32.509Z,32.81
2023-04-08T04:22:32.625Z,31.61
2023-04-08T04:23:32.677Z,33.14
2023-04-08T04:24:32.777Z,31.14
2023-04-08T04:25:32.836Z,31.57
2023-04-08T04:26:32.965Z,31.73
2023-04-08T04:27:33.085Z,32.04
2023-04-08T04:28:33.127Z,33.52
2023-04-08T04:29:33.229Z,31.42
2023-04-08T04:30:33.320Z,31.28
2023-04-08T04:31:33.436Z,30.77
2023-04-08T04:32:33.568Z,31.25
2023-04-08T04:33:33.559Z,30.52
2023-04-08T04:34:33.685Z,33.31
2023-04-08T04:35:33.748Z,30.20
2023-04-08T04:36:33.818Z,32.66
2023-04-08T04:37:33.909Z,30.97
2023-04-08T04:38:33.980Z,31.81
2023-04-08T04:39:34.098Z,32.41
2023-04-08T04:40:34.180Z,32.38
2023-04-08T04:41:34.249Z,31.22
2023-04-08T04:42:34.352Z,31.81
2023-04-08T04:43:35.204Z,31.42
2023-04-08T04:44:34.438Z,30.85
2023-04-08T04:45:34.569Z,31.24
2023-04-08T04:46:34.710Z,32.61
2023-04-08T04:47:34.781Z,32.52
2023-04-08T04:48:34.768Z,32.16
2023-04-08T04:49:34.884Z,33.15
2023-04-08T04:50:34.935Z,32.54
2023-04-08T04:51:35.050Z,32.57
2023-04-08T04:52:35.133Z,31.52
2023-04-08T04:53:35.202Z,31.11
2023-04-08T04:54:35.310Z,33.04
2023-04-08T04:55:36.990Z,31.18
2023-04-08T04:56:35.644Z,34.12
2023-04-08T04:57:35.765Z,33.27
2023-04-08T04:58:35.811Z,33.97
2023-04-08T04:59:35.917Z,31.09
2023-04-08T05:00:35.969Z,33.72
2023-04-08T05:01:36.188Z,33.62
2023-04-08T05:02:36.410Z,33.69
2023-04-08T05:03:36.239Z,33.29
2023-04-08T05:04:36.413Z,34.22
2023-04-08T05:05:36.362Z,33.72
2023-04-08T05:06:36.411Z,33.41
2023-04-08T05:07:36.488Z,33.67
2023-04-08T05:08:36.575Z,33.25
2023-04-08T05:09:36.667Z,33.79
2023-04-08T05:10:36.741Z,34.66
2023-04-08T05:11:36.827Z,32.46
2023-04-08T05:12:36.894Z,34.12
2023-04-08T05:13:36.959Z,32.82
2023-04-08T05:14:37.013Z,34.10
2023-04-08T05:15:37.118Z,34.40
2023-04-08T05:16:37.246Z,33.57
2023-04-08T05:17:37.319Z,33.14
2023-04-08T05:18:37.282Z,34.06
2023-04-08T05:19:37.353Z,35.42
2023-04-08T05:20:37.419Z,36.43
2023-04-08T05:21:37.520Z,33.73
2023-04-08T05:22:37.568Z,36.88
2023-04-08T05:23:37.683Z,33.86
2023-04-08T05:24:37.732Z,33.42
2023-04-08T05:25:37.842Z,33.23
2023-04-08T05:26:37.953Z,33.12
2023-04-08T05:27:38.043Z,34.85
2023-04-08T05:28:38.096Z,34.39
2023-04-08T05:29:38.149Z,32.75
2023-04-08T05:30:38.250Z,34.30
2023-04-08T05:31:38.383Z,34.57
2023-04-08T05:32:38.461Z,33.60
2023-04-08T05:33:38.521Z,34.30
2023-04-08T05:34:38.606Z,33.18
2023-04-08T05:35:38.690Z,34.90
2023-04-08T05:36:38.747Z,33.73
2023-04-08T05:37:38.899Z,32.82
2023-04-08T05:38:38.896Z,34.01
2023-04-08T05:39:38.993Z,33.79
2023-04-08T05:40:39.047Z,33.62
2023-04-08T05:41:39.087Z,33.28
2023-04-08T05:42:39.217Z,34.18
2023-04-08T05:43:39.286Z,33.22
2023-04-08T05:44:39.358Z,33.08
2023-04-08T05:45:39.434Z,34.39
2023-04-08T05:46:39.523Z,35.90
2023-04-08T05:47:39.666Z,34.75
2023-04-08T05:48:39.641Z,33.56
2023-04-08T05:49:39.708Z,36.10
2023-04-08T05:50:39.843Z,34.78
2023-04-08T05:51:39.917Z,34.79
2023-04-08T05:52:39.981Z,33.62
2023-04-08T05:53:40.067Z,34.87
2023-04-08T05:54:40.129Z,34.94
2023-04-08T05:55:40.248Z,35.42
2023-04-08T05:56:40.366Z,32.76
2023-04-08T05:57:40.442Z,33.89
2023-04-08T05:58:40.528Z,33.73
2023-04-08T05:59:40.593Z,33.39
2023-04-08T06:00:40.679Z,34.14
2023-04-08T06:01:40.812Z,35.46
2023-04-08T06:02:41.068Z,35.52
2023-04-08T06:03:41.235Z,33.41
2023-04-08T06:04:41.234Z,34.32
2023-04-08T06:05:41.134Z,32.65
2023-04-08T06:06:41.194Z,35.33
2023-04-08T06:07:41.415Z,35.93
2023-04-08T06:08:41.363Z,34.95
2023-04-08T06:09:41.466Z,34.00
2023-04-08T06:10:41.542Z,34.39
2023-04-08T06:11:41.659Z,34.85
2023-04-08T06:12:41.727Z,33.77
2023-04-08T06:13:41.794Z,34.90
2023-04-08T06:14:41.859Z,34.43
2023-04-08T06:15:41.965Z,35.01
2023-04-08T06:16:42.079Z,34.45
2023-04-08T06:17:42.600Z,34.64
2023-04-08T06:18:42.217Z,33.53
2023-04-08T06:19:42.306Z,33.71
2023-04-08T06:20:42.369Z,33.96
2023-04-08T06:21:42.451Z,33.15
2023-04-08T06:22:42.493Z,35.00
2023-04-08T06:23:42.697Z,35.01
2023-04-08T06:24:42.675Z,35.31
2023-04-08T06:25:42.792Z,34.48
2023-04-08T06:26:42.798Z,34.15
2023-04-08T06:27:42.859Z,34.54
2023-04-08T06:28:42.946Z,34.19
2023-04-08T06:29:43.326Z,33.83
2023-04-08T06:30:43.086Z,34.44
2023-04-08T06:31:43.236Z,34.75
2023-04-08T06:32:43.355Z,34.73
2023-04-08T06:33:43.401Z,34.97
2023-04-08T06:34:43.452Z,35.21
2023-04-08T06:35:43.610Z,34.29
2023-04-08T06:36:43.687Z,36.42
2023-04-08T06:37:43.761Z,35.17
2023-04-08T06:38:43.990Z,35.34
2023-04-08T06:39:43.944Z,36.03
2023-04-08T06:40:44.050Z,37.25
2023-04-08T06:41:44.140Z,36.07
2023-04-08T06:42:44.203Z,35.64
2023-04-08T06:43:44.294Z,34.61
2023-04-08T06:44:44.382Z,35.61
2023-04-08T06:45:44.479Z,35.68
2023-04-08T06:46:44.512Z,34.80
2023-04-08T06:47:44.673Z,32.23
2023-04-08T06:48:44.725Z,35.09
2023-04-08T06:49:44.786Z,36.88
2023-04-08T06:50:44.861Z,34.52
2023-04-08T06:51:44.980Z,34.51
2023-04-08T06:52:45.092Z,35.19
2023-04-08T06:53:45.194Z,35.31
2023-04-08T06:54:45.248Z,35.42
2023-04-08T06:55:45.366Z,35.24
2023-04-08T06:56:45.481Z,36.41
2023-04-08T06:57:45.541Z,36.01
2023-04-08T06:58:45.599Z,36.23
2023-04-08T06:59:45.721Z,36.17
2023-04-08T07:00:45.782Z,35.51
2023-04-08T07:01:45.988Z,36.12
2023-04-08T07:02:46.024Z,36.45
2023-04-08T07:03:46.119Z,36.89
2023-04-08T07:04:46.985Z,34.55
2023-04-08T07:05:46.238Z,37.29
2023-04-08T07:06:46.346Z,37.08
2023-04-08T07:07:46.449Z,35.78
2023-04-08T07:08:46.541Z,37.30
2023-04-08T07:09:46.849Z,36.83
2023-04-08T07:10:46.720Z,35.47
2023-04-08T07:11:46.811Z,36.07
2023-04-08T07:12:46.915Z,36.64
2023-04-08T07:13:47.036Z,36.87
2023-04-08T07:14:47.082Z,37.94
2023-04-08T07:15:47.170Z,37.21
2023-04-08T07:16:47.309Z,35.79
2023-04-08T07:17:47.409Z,37.66
2023-04-08T07:18:47.473Z,37.55
2023-04-08T07:19:47.549Z,37.29
2023-04-08T07:20:47.651Z,38.34
2023-04-08T07:21:47.710Z,38.54
2023-04-08T07:22:47.817Z,37.46
2023-04-08T07:23:47.928Z,37.31
2023-04-08T07:24:48.017Z,35.52
2023-04-08T07:25:48.117Z,37.78
2023-04-08T07:26:48.181Z,36.49
2023-04-08T07:27:48.274Z,37.13
2023-04-08T07:28:48.479Z,37.40
2023-04-08T07:29:48.497Z,37.22
2023-04-08T07:30:48.562Z,35.26
2023-04-08T07:31:48.633Z,37.22
2023-04-08T07:32:48.757Z,37.74
2023-04-08T07:33:48.808Z,35.64
2023-04-08T07:34:48.899Z,36.89
2023-04-08T07:35:48.993Z,36.97
2023-04-08T07:36:49.072Z,38.37
2023-04-08T07:37:49.210Z,37.71
2023-04-08T07:38:49.409Z,36.87
2023-04-08T07:39:49.354Z,37.96
2023-04-08T07:40:49.433Z,36.86
2023-04-08T07:41:49.523Z,36.91
2023-04-08T07:42:49.629Z,37.25
2023-04-08T07:43:49.734Z,37.49
2023-04-08T07:44:49.800Z,38.05
2023-04-08T07:45:49.906Z,37.38
2023-04-08T07:46:49.992Z,36.59
2023-04-08T07:47:50.113Z,37.09
2023-04-08T07:48:50.264Z,38.01
2023-04-08T07:49:50.261Z,37.26
2023-04-08T07:51:09.292Z,37.27
2023-04-08T07:51:51.348Z,37.47
2023-04-08T07:52:50.447Z,37.73
2023-04-08T07:53:50.408Z,37.67
2023-04-08T07:54:50.454Z,37.59
2023-04-08T07:55:50.462Z,39.01
2023-04-08T07:56:50.520Z,38.46
2023-04-08T07:57:50.547Z,37.85
2023-04-08T07:58:52.849Z,38.05
2023-04-08T07:59:50.580Z,38.08
2023-04-08T08:00:50.626Z,38.27
2023-04-08T08:01:50.656Z,37.93
2023-04-08T08:02:50.815Z,38.46
2023-04-08T08:03:51.277Z,38.71
2023-04-08T08:04:50.777Z,38.73
2023-04-08T08:05:50.779Z,39.18
2023-04-08T08:06:50.773Z,38.61
2023-04-08T08:07:50.859Z,38.80
2023-04-08T08:08:50.814Z,38.37
2023-04-08T08:09:50.868Z,39.07
2023-04-08T08:10:50.906Z,38.19
2023-04-08T08:11:50.910Z,38.44
2023-04-08T08:12:50.948Z,38.24
2023-04-08T08:13:51.096Z,39.45
2023-04-08T08:14:50.968Z,39.26
2023-04-08T08:15:51.077Z,38.90
2023-04-08T08:16:51.038Z,39.76
2023-04-08T08:17:51.158Z,38.66
2023-04-08T08:18:51.084Z,37.76
2023-04-08T08:19:51.097Z,38.44
2023-04-08T08:20:51.143Z,38.72
2023-04-08T08:21:51.191Z,39.59
2023-04-08T08:22:57.293Z,38.98
2023-04-08T08:23:52.281Z,39.22
2023-04-08T08:24:51.231Z,39.50
2023-04-08T08:25:51.272Z,39.38
2023-04-08T08:26:51.319Z,39.79
2023-04-08T08:27:51.365Z,39.61
2023-04-08T08:28:51.412Z,41.39
2023-04-08T08:29:51.407Z,38.27
2023-04-08T08:30:51.531Z,40.92
2023-04-08T08:31:51.444Z,40.08
2023-04-08T08:32:51.519Z,39.40
2023-04-08T08:33:51.836Z,40.26
2023-04-08T08:34:51.684Z,39.48
2023-04-08T08:35:51.810Z,40.69
2023-04-08T08:36:51.799Z,40.12
2023-04-08T08:37:51.907Z,39.29
2023-04-08T08:38:51.946Z,38.05
2023-04-08T08:39:52.013Z,38.50
2023-04-08T08:40:52.109Z,38.78
2023-04-08T08:41:52.188Z,39.07
2023-04-08T08:42:52.323Z,37.85
2023-04-08T08:43:52.529Z,37.82
2023-04-08T08:44:52.411Z,37.67
2023-04-08T08:45:52.477Z,39.39
2023-04-08T08:46:52.572Z,36.87
2023-04-08T08:47:52.652Z,39.20
2023-04-08T08:48:52.657Z,39.08
2023-04-08T08:49:52.730Z,41.02
2023-04-08T08:50:52.834Z,38.76
2023-04-08T08:51:52.909Z,38.52
2023-04-08T08:52:53.002Z,38.08
2023-04-08T08:53:53.156Z,38.43
2023-04-08T08:54:53.102Z,37.67
2023-04-08T08:56:16.402Z,38.59
2023-04-08T08:56:54.189Z,38.78
2023-04-08T08:57:53.215Z,38.89
2023-04-08T08:58:53.194Z,38.75
2023-04-08T08:59:53.243Z,36.94
2023-04-08T09:00:53.241Z,39.47
2023-04-08T09:01:53.354Z,39.51
2023-04-08T09:02:53.458Z,38.52
2023-04-08T09:03:53.648Z,38.11
2023-04-08T09:04:53.449Z,35.83
2023-04-08T09:05:53.371Z,37.14
2023-04-08T09:06:53.360Z,37.13
2023-04-08T09:07:53.417Z,36.73
2023-04-08T09:08:53.440Z,36.29
2023-04-08T09:09:53.507Z,34.98
2023-04-08T09:10:53.514Z,37.80
2023-04-08T09:11:53.569Z,32.64
2023-04-08T09:12:53.645Z,37.72
2023-04-08T09:13:53.687Z,35.17
2023-04-08T09:14:53.733Z,36.70
2023-04-08T09:15:53.800Z,38.04
2023-04-08T09:16:53.961Z,35.73
2023-04-08T09:17:54.030Z,35.53
2023-04-08T09:18:53.986Z,35.34
2023-04-08T09:19:54.029Z,35.55
2023-04-08T09:20:54.130Z,31.73
2023-04-08T09:21:54.163Z,36.63
2023-04-08T09:22:54.217Z,33.25
2023-04-08T09:23:54.391Z,33.70
2023-04-08T09:24:54.336Z,36.08
2023-04-08T09:25:54.409Z,32.08
2023-04-08T09:26:54.460Z,34.64
2023-04-08T09:27:54.532Z,33.04
2023-04-08T09:28:54.546Z,34.39
2023-04-08T09:29:54.605Z,31.60
2023-04-08T09:30:54.677Z,36.24
2023-04-08T09:31:54.889Z,33.09
2023-04-08T09:32:54.842Z,35.63
2023-04-08T09:33:54.859Z,32.52
2023-04-08T09:34:54.927Z,36.14
2023-04-08T09:35:55.035Z,35.53
2023-04-08T09:36:55.052Z,31.72
2023-04-08T09:37:55.129Z,35.60
2023-04-08T09:38:55.194Z,33.96
2023-04-08T09:39:55.221Z,32.95
2023-04-08T09:40:55.325Z,34.14
2023-04-08T09:41:55.362Z,33.96
2023-04-08T09:42:55.445Z,33.27
2023-04-08T09:43:55.456Z,34.54
2023-04-08T09:44:55.526Z,33.71
2023-04-08T09:45:55.674Z,32.39
2023-04-08T09:46:55.658Z,33.74
2023-04-08T09:47:55.768Z,34.68
2023-04-08T09:48:55.787Z,32.39
2023-04-08T09:49:55.881Z,35.08
2023-04-08T09:50:55.928Z,32.80
2023-04-08T09:51:55.950Z,31.78
2023-04-08T09:52:56.032Z,34.00
2023-04-08T09:53:56.111Z,34.91
2023-04-08T09:54:56.128Z,30.43
2023-04-08T09:55:56.202Z,31.88
2023-04-08T09:56:56.254Z,34.62
2023-04-08T09:57:56.312Z,35.33
2023-04-08T09:58:56.341Z,32.57
2023-04-08T09:59:56.410Z,34.18
2023-04-08T10:00:56.504Z,31.68
2023-04-08T10:01:56.600Z,34.17
2023-04-08T10:02:56.857Z,32.91
2023-04-08T10:03:56.663Z,35.54
2023-04-08T10:04:56.782Z,34.49
2023-04-08T10:05:56.759Z,33.46
2023-04-08T10:06:56.772Z,35.70
2023-04-08T10:07:56.848Z,33.01
2023-04-08T10:08:56.863Z,34.11
2023-04-08T10:09:56.914Z,35.59
2023-04-08T10:10:56.976Z,34.26
2023-04-08T10:11:57.048Z,32.25
2023-04-08T10:12:57.083Z,30.30
2023-04-08T10:13:57.119Z,34.30
2023-04-08T10:14:57.142Z,30.96
2023-04-08T10:15:57.244Z,34.83
2023-04-08T10:16:57.286Z,34.82
2023-04-08T10:17:57.412Z,33.17
2023-04-08T10:18:57.423Z,33.47
2023-04-08T10:19:57.427Z,33.54
2023-04-08T10:20:57.524Z,35.07
2023-04-08T10:21:57.564Z,33.20
2023-04-08T10:22:57.609Z,31.50
2023-04-08T10:23:57.663Z,35.25
2023-04-08T10:24:57.695Z,35.05
2023-04-08T10:25:57.760Z,34.63
2023-04-08T10:26:57.784Z,35.49
2023-04-08T10:27:57.842Z,36.49
2023-04-08T10:28:57.904Z,32.11
2023-04-08T10:29:57.976Z,31.79
2023-04-08T10:30:57.997Z,36.28
2023-04-08T10:31:58.175Z,35.41
2023-04-08T10:32:58.173Z,33.91
2023-04-08T10:33:58.130Z,33.44
2023-04-08T10:34:58.211Z,33.13
2023-04-08T10:35:58.287Z,35.03
2023-04-08T10:36:58.313Z,33.25
2023-04-08T10:37:58.351Z,34.92
2023-04-08T10:38:58.394Z,36.90
2023-04-08T10:39:58.449Z,36.67
2023-04-08T10:40:58.524Z,35.45
2023-04-08T10:41:58.597Z,36.51
2023-04-08T10:42:58.664Z,33.74
2023-04-08T10:43:58.689Z,32.48
2023-04-08T10:44:58.737Z,35.17
2023-04-08T10:45:58.836Z,36.08
2023-04-08T10:46:58.823Z,33.35
2023-04-08T10:47:58.899Z,32.84
2023-04-08T10:48:58.915Z,35.93
2023-04-08T10:49:58.978Z,36.97
2023-04-08T10:50:59.067Z,32.76
2023-04-08T10:51:59.090Z,34.53
2023-04-08T10:52:59.119Z,32.34
2023-04-08T10:53:59.209Z,34.78
2023-04-08T10:54:59.253Z,35.26
2023-04-08T10:55:59.306Z,34.56
2023-04-08T10:56:59.368Z,33.44
2023-04-08T10:57:59.457Z,36.46
2023-04-08T10:58:59.488Z,34.80
2023-04-08T10:59:59.521Z,32.31
2023-04-08T11:00:59.630Z,33.91
2023-04-08T11:01:59.824Z,31.65
2023-04-08T11:02:59.867Z,31.14
2023-04-08T11:03:59.859Z,32.24
2023-04-08T11:04:59.874Z,34.22
2023-04-08T11:05:59.974Z,34.56
2023-04-08T11:06:59.966Z,32.41
2023-04-08T11:07:59.981Z,32.54
2023-04-08T11:09:00.041Z,33.59
2023-04-08T11:10:00.162Z,34.96
2023-04-08T11:11:00.165Z,33.14
2023-04-08T11:12:00.216Z,35.86
2023-04-08T11:13:00.262Z,34.50
2023-04-08T11:14:00.283Z,32.20
2023-04-08T11:15:00.351Z,35.28
2023-04-08T11:16:00.650Z,34.53
2023-04-08T11:17:00.459Z,35.13
2023-04-08T11:18:00.564Z,33.34
2023-04-08T11:19:00.578Z,30.50
2023-04-08T11:20:00.615Z,32.57
2023-04-08T11:21:00.681Z,35.12
2023-04-08T11:22:00.757Z,33.51
2023-04-08T11:23:00.815Z,35.47
2023-04-08T11:24:00.929Z,35.32
2023-04-08T11:25:00.895Z,33.03
2023-04-08T11:26:00.976Z,32.49
2023-04-08T11:27:01.009Z,31.49
2023-04-08T11:28:01.099Z,34.86
2023-04-08T11:29:01.128Z,32.53
2023-04-08T11:30:01.181Z,37.01
2023-04-08T11:31:01.257Z,33.50
2023-04-08T11:32:01.262Z,35.11
2023-04-08T11:33:01.343Z,35.75
2023-04-08T11:34:01.389Z,34.42
2023-04-08T11:35:01.440Z,33.28
2023-04-08T11:36:01.703Z,30.31
2023-04-08T11:37:01.598Z,33.26
2023-04-08T11:38:01.588Z,35.17
2023-04-08T11:39:01.631Z,32.30
2023-04-08T11:40:01.658Z,32.67
2023-04-08T11:41:01.753Z,32.77
2023-04-08T11:42:01.831Z,31.58
2023-04-08T11:43:01.861Z,31.93
2023-04-08T11:44:01.896Z,31.87
2023-04-08T11:45:01.977Z,31.26
2023-04-08T11:46:02.002Z,32.13
2023-04-08T11:47:02.104Z,32.54
2023-04-08T11:48:04.282Z,28.81
2023-04-08T11:49:02.099Z,32.73
2023-04-08T11:50:02.137Z,33.96
2023-04-08T11:51:02.167Z,31.76
2023-04-08T11:52:02.147Z,27.50
2023-04-08T11:53:02.187Z,30.06
2023-04-08T11:54:02.216Z,33.94
2023-04-08T11:55:02.211Z,32.19
2023-04-08T11:56:02.206Z,31.92
2023-04-08T11:57:02.231Z,35.59
2023-04-08T11:58:02.281Z,31.69
2023-04-08T11:59:02.263Z,34.17
2023-04-08T12:00:02.278Z,30.22
2023-04-08T12:01:02.326Z,28.39
2023-04-08T12:02:02.358Z,32.81
2023-04-08T12:03:02.442Z,33.69
2023-04-08T12:04:02.550Z,35.24
2023-04-08T12:05:02.473Z,36.20
2023-04-08T12:06:02.410Z,33.48
2023-04-08T12:07:02.417Z,31.60
2023-04-08T12:08:02.437Z,31.69
2023-04-08T12:09:02.454Z,33.67
2023-04-08T12:10:02.474Z,35.97
2023-04-08T12:11:16.645Z,33.61
2023-04-08T12:12:03.512Z,33.83
2023-04-08T12:13:02.512Z,34.03
2023-04-08T12:14:02.530Z,33.35
2023-04-08T12:15:02.548Z,34.67
2023-04-08T12:16:02.641Z,34.51
2023-04-08T12:17:02.578Z,31.31
2023-04-08T12:18:02.745Z,35.90
2023-04-08T12:19:02.634Z,35.34
2023-04-08T12:20:02.666Z,33.25
2023-04-08T12:21:02.687Z,30.04
2023-04-08T12:22:02.709Z,29.42
2023-04-08T12:23:02.738Z,34.77
2023-04-08T12:24:02.742Z,29.04
2023-04-08T12:25:02.785Z,33.63
2023-04-08T12:26:02.801Z,31.32
2023-04-08T12:27:02.790Z,35.56
2023-04-08T12:28:02.844Z,29.82
2023-04-08T12:29:02.883Z,32.27
2023-04-08T12:30:03.378Z,31.50
2023-04-08T12:31:02.923Z,33.05
2023-04-08T12:32:02.957Z,34.35
2023-04-08T12:33:02.986Z,33.38
2023-04-08T12:34:02.944Z,31.23
2023-04-08T12:35:03.002Z,27.90
2023-04-08T12:36:03.118Z,32.59
2023-04-08T12:37:03.111Z,31.26
2023-04-08T12:38:03.181Z,32.20
2023-04-08T12:39:03.161Z,32.75
2023-04-08T12:40:03.238Z,26.82
2023-04-08T12:41:03.269Z,28.67
2023-04-08T12:42:03.311Z,30.65
2023-04-08T12:43:03.387Z,32.55
2023-04-08T12:44:03.376Z,26.99
2023-04-08T12:45:03.458Z,27.31
2023-04-08T12:46:03.504Z,31.68
2023-04-08T12:47:03.576Z,29.97
2023-04-08T12:48:03.660Z,30.77
2023-04-08T12:49:05.163Z,32.91
2023-04-08T12:50:03.633Z,30.66
2023-04-08T12:51:03.711Z,28.87
2023-04-08T12:52:03.734Z,34.21
2023-04-08T12:53:03.779Z,27.44
2023-04-08T12:54:03.804Z,32.47